sensor_id;sensor_type;location;lat;lon;timestamp;pressure;altitude;pressure_sealevel;temperature;humidity
59337;BME280;45115;52.002;4.686;2023-04-21T00:01:13;101687.34;;;7.60;92.14
59337;BME280;45115;52.002;4.686;2023-04-21T00:03:40;101683.44;;;7.64;92.06
59337;BME280;45115;52.002;4.686;2023-04-21T00:06:08;101690.94;;;7.60;92.52
59337;BME280;45115;52.002;4.686;2023-04-21T00:08:36;101693.56;;;7.62;92.80
59337;BME280;45115;52.002;4.686;2023-04-21T00:11:04;101700.56;;;7.66;92.94
59337;BME280;45115;52.002;4.686;2023-04-21T00:13:31;101702.31;;;7.67;92.63
59337;BME280;45115;52.002;4.686;2023-04-21T00:15:58;101708.75;;;7.66;92.75
59337;BME280;45115;52.002;4.686;2023-04-21T00:18:24;101711.47;;;7.66;92.93
59337;BME280;45115;52.002;4.686;2023-04-21T00:20:52;101717.88;;;7.65;93.53
59337;BME280;45115;52.002;4.686;2023-04-21T00:23:18;101709.81;;;7.63;93.40
59337;BME280;45115;52.002;4.686;2023-04-21T00:25:46;101708.63;;;7.67;93.60
59337;BME280;45115;52.002;4.686;2023-04-21T00:28:13;101707.75;;;7.67;93.90
59337;BME280;45115;52.002;4.686;2023-04-21T00:30:40;101695.75;;;7.57;94.25
59337;BME280;45115;52.002;4.686;2023-04-21T00:33:06;101702.41;;;7.65;94.51
59337;BME280;45115;52.002;4.686;2023-04-21T00:35:33;101699.56;;;7.67;93.98
59337;BME280;45115;52.002;4.686;2023-04-21T00:38:00;101697.06;;;7.64;94.27
59337;BME280;45115;52.002;4.686;2023-04-21T00:40:26;101685.72;;;7.57;94.80
59337;BME280;45115;52.002;4.686;2023-04-21T00:42:54;101672.75;;;7.61;94.39
59337;BME280;45115;52.002;4.686;2023-04-21T00:45:21;101667.38;;;7.59;95.34
59337;BME280;45115;52.002;4.686;2023-04-21T00:47:48;101669.13;;;7.60;94.72
59337;BME280;45115;52.002;4.686;2023-04-21T00:50:16;101652.91;;;7.59;94.96
59337;BME280;45115;52.002;4.686;2023-04-21T00:52:43;101661.84;;;7.61;94.79
59337;BME280;45115;52.002;4.686;2023-04-21T00:55:11;101654.41;;;7.63;95.11
59337;BME280;45115;52.002;4.686;2023-04-21T00:57:38;101655.50;;;7.60;95.52
59337;BME280;45115;52.002;4.686;2023-04-21T01:00:07;101655.50;;;7.60;95.56
59337;BME280;45115;52.002;4.686;2023-04-21T01:02:36;101648.00;;;7.64;95.70
59337;BME280;45115;52.002;4.686;2023-04-21T01:05:04;101650.59;;;7.65;95.70
59337;BME280;45115;52.002;4.686;2023-04-21T01:07:33;101647.00;;;7.65;95.78
59337;BME280;45115;52.002;4.686;2023-04-21T01:09:59;101644.59;;;7.60;95.92
59337;BME280;45115;52.002;4.686;2023-04-21T01:12:28;101644.38;;;7.63;95.63
59337;BME280;45115;52.002;4.686;2023-04-21T01:14:55;101648.88;;;7.64;95.53
59337;BME280;45115;52.002;4.686;2023-04-21T01:17:23;101650.94;;;7.61;95.79
59337;BME280;45115;52.002;4.686;2023-04-21T01:19:50;101648.00;;;7.64;95.98
59337;BME280;45115;52.002;4.686;2023-04-21T01:22:20;101657.06;;;7.64;96.34
59337;BME280;45115;52.002;4.686;2023-04-21T01:24:47;101656.16;;;7.64;96.16
59337;BME280;45115;52.002;4.686;2023-04-21T01:27:17;101657.25;;;7.61;96.27
59337;BME280;45115;52.002;4.686;2023-04-21T01:29:47;101658.13;;;7.62;96.36
59337;BME280;45115;52.002;4.686;2023-04-21T01:32:16;101647.00;;;7.65;96.29
59337;BME280;45115;52.002;4.686;2023-04-21T01:34:44;101647.00;;;7.65;96.53
59337;BME280;45115;52.002;4.686;2023-04-21T01:37:13;101653.31;;;7.65;96.46
59337;BME280;45115;52.002;4.686;2023-04-21T01:39:44;101640.78;;;7.63;96.80
59337;BME280;45115;52.002;4.686;2023-04-21T01:42:11;101645.25;;;7.64;96.46
59337;BME280;45115;52.002;4.686;2023-04-21T01:44:38;101635.13;;;7.66;96.69
59337;BME280;45115;52.002;4.686;2023-04-21T01:47:05;101636.84;;;7.67;96.80
59337;BME280;45115;52.002;4.686;2023-04-21T01:49:32;101636.41;;;7.60;96.83
59337;BME280;45115;52.002;4.686;2023-04-21T01:51:59;101627.25;;;7.61;97.45
59337;BME280;45115;52.002;4.686;2023-04-21T01:54:25;101614.38;;;7.63;97.23
59337;BME280;45115;52.002;4.686;2023-04-21T01:56:53;101616.34;;;7.61;97.11
59337;BME280;45115;52.002;4.686;2023-04-21T01:59:20;101604.00;;;7.56;97.20
59337;BME280;45115;52.002;4.686;2023-04-21T02:01:47;101605.66;;;7.58;97.24
59337;BME280;45115;52.002;4.686;2023-04-21T02:04:14;101608.50;;;7.57;97.46
59337;BME280;45115;52.002;4.686;2023-04-21T02:06:42;101604.13;;;7.54;97.81
59337;BME280;45115;52.002;4.686;2023-04-21T02:09:08;101607.41;;;7.59;97.60
59337;BME280;45115;52.002;4.686;2023-04-21T02:11:35;101593.31;;;7.53;97.91
59337;BME280;45115;52.002;4.686;2023-04-21T02:14:03;101604.78;;;7.58;98.29
59337;BME280;45115;52.002;4.686;2023-04-21T02:16:30;101603.81;;;7.59;97.70
59337;BME280;45115;52.002;4.686;2023-04-21T02:18:56;101593.75;;;7.59;97.79
59337;BME280;45115;52.002;4.686;2023-04-21T02:21:26;101602.81;;;7.60;97.37
59337;BME280;45115;52.002;4.686;2023-04-21T02:23:53;101594.41;;;7.63;97.43
59337;BME280;45115;52.002;4.686;2023-04-21T02:26:20;101595.75;;;7.57;97.34
59337;BME280;45115;52.002;4.686;2023-04-21T02:28:46;101601.50;;;7.53;98.02
59337;BME280;45115;52.002;4.686;2023-04-21T02:31:16;101596.50;;;7.59;98.20
59337;BME280;45115;52.002;4.686;2023-04-21T02:33:42;101585.38;;;7.62;98.06
59337;BME280;45115;52.002;4.686;2023-04-21T02:36:10;101588.88;;;7.64;97.92
59337;BME280;45115;52.002;4.686;2023-04-21T02:38:36;101587.22;;;7.62;97.82
59337;BME280;45115;52.002;4.686;2023-04-21T02:41:03;101573.59;;;7.62;97.91
59337;BME280;45115;52.002;4.686;2023-04-21T02:43:30;101568.91;;;7.64;98.02
59337;BME280;45115;52.002;4.686;2023-04-21T02:45:56;101568.03;;;7.63;97.58
59337;BME280;45115;52.002;4.686;2023-04-21T02:48:24;101578.16;;;7.61;97.93
59337;BME280;45115;52.002;4.686;2023-04-21T02:50:51;101584.84;;;7.57;98.28
59337;BME280;45115;52.002;4.686;2023-04-21T02:53:18;101580.34;;;7.56;98.50
59337;BME280;45115;52.002;4.686;2023-04-21T02:55:44;101563.69;;;7.61;98.36
59337;BME280;45115;52.002;4.686;2023-04-21T02:58:11;101564.00;;;7.56;98.65
59337;BME280;45115;52.002;4.686;2023-04-21T03:00:38;101558.66;;;7.55;98.46
59337;BME280;45115;52.002;4.686;2023-04-21T03:03:05;101561.38;;;7.55;98.80
59337;BME280;45115;52.002;4.686;2023-04-21T03:05:33;101559.09;;;7.61;98.76
59337;BME280;45115;52.002;4.686;2023-04-21T03:08:00;101571.22;;;7.57;98.70
59337;BME280;45115;52.002;4.686;2023-04-21T03:10:27;101579.41;;;7.57;98.64
59337;BME280;45115;52.002;4.686;2023-04-21T03:12:54;101573.38;;;7.52;99.14
59337;BME280;45115;52.002;4.686;2023-04-21T03:15:22;101583.19;;;7.55;99.23
59337;BME280;45115;52.002;4.686;2023-04-21T03:17:49;101566.72;;;7.56;99.47
59337;BME280;45115;52.002;4.686;2023-04-21T03:20:16;101561.81;;;7.61;99.53
59337;BME280;45115;52.002;4.686;2023-04-21T03:22:44;101558.78;;;7.66;98.50
59337;BME280;45115;52.002;4.686;2023-04-21T03:25:11;101561.81;;;7.61;98.31
59337;BME280;45115;52.002;4.686;2023-04-21T03:27:37;101554.28;;;7.52;99.42
59337;BME280;45115;52.002;4.686;2023-04-21T03:30:05;101546.03;;;7.54;99.08
59337;BME280;45115;52.002;4.686;2023-04-21T03:32:32;101549.19;;;7.60;99.00
59337;BME280;45115;52.002;4.686;2023-04-21T03:34:58;101545.56;;;7.60;99.14
59337;BME280;45115;52.002;4.686;2023-04-21T03:37:25;101538.38;;;7.59;99.02
59337;BME280;45115;52.002;4.686;2023-04-21T03:39:53;101532.59;;;7.63;98.49
59337;BME280;45115;52.002;4.686;2023-04-21T03:42:20;101531.72;;;7.63;98.76
59337;BME280;45115;52.002;4.686;2023-04-21T03:44:47;101520.91;;;7.61;98.78
59337;BME280;45115;52.002;4.686;2023-04-21T03:47:15;101531.72;;;7.63;98.75
59337;BME280;45115;52.002;4.686;2023-04-21T03:49:41;101529.97;;;7.62;98.91
59337;BME280;45115;52.002;4.686;2023-04-21T03:52:08;101521.47;;;7.66;98.70
59337;BME280;45115;52.002;4.686;2023-04-21T03:54:36;101532.38;;;7.66;98.58
59337;BME280;45115;52.002;4.686;2023-04-21T03:57:04;101511.78;;;7.62;98.70
59337;BME280;45115;52.002;4.686;2023-04-21T03:59:31;101510.78;;;7.63;98.76
59337;BME280;45115;52.002;4.686;2023-04-21T04:01:57;101512.63;;;7.63;98.84
59337;BME280;45115;52.002;4.686;2023-04-21T04:04:24;101508.72;;;7.54;98.85
59337;BME280;45115;52.002;4.686;2023-04-21T04:06:51;101513.09;;;7.57;99.18
59337;BME280;45115;52.002;4.686;2023-04-21T04:09:17;101507.84;;;7.54;99.41
59337;BME280;45115;52.002;4.686;2023-04-21T04:11:44;101512.84;;;7.60;99.64
59337;BME280;45115;52.002;4.686;2023-04-21T04:14:12;101520.63;;;7.66;99.35
59337;BME280;45115;52.002;4.686;2023-04-21T04:16:38;101516.13;;;7.65;99.08
59337;BME280;45115;52.002;4.686;2023-04-21T04:19:05;101518.41;;;7.58;99.44
59337;BME280;45115;52.002;4.686;2023-04-21T04:21:32;101506.22;;;7.64;99.25
59337;BME280;45115;52.002;4.686;2023-04-21T04:23:59;101498.78;;;7.66;99.31
59337;BME280;45115;52.002;4.686;2023-04-21T04:26:27;101511.88;;;7.61;99.36
59337;BME280;45115;52.002;4.686;2023-04-21T04:28:54;101508.81;;;7.65;99.48
59337;BME280;45115;52.002;4.686;2023-04-21T04:31:22;101512.19;;;7.69;99.63
59337;BME280;45115;52.002;4.686;2023-04-21T04:33:49;101513.41;;;7.65;99.61
59337;BME280;45115;52.002;4.686;2023-04-21T04:36:16;101512.09;;;7.70;99.58
59337;BME280;45115;52.002;4.686;2023-04-21T04:38:43;101504.44;;;7.75;99.47
59337;BME280;45115;52.002;4.686;2023-04-21T04:41:10;101506.97;;;7.66;99.25
59337;BME280;45115;52.002;4.686;2023-04-21T04:43:37;101509.06;;;7.62;99.54
59337;BME280;45115;52.002;4.686;2023-04-21T04:46:04;101502.19;;;7.57;99.55
59337;BME280;45115;52.002;4.686;2023-04-21T04:48:34;101513.31;;;7.54;99.65
59337;BME280;45115;52.002;4.686;2023-04-21T04:51:01;101515.81;;;7.57;99.98
59337;BME280;45115;52.002;4.686;2023-04-21T04:53:28;101517.88;;;7.66;99.80
59337;BME280;45115;52.002;4.686;2023-04-21T04:55:54;101524.63;;;7.73;100.00
59337;BME280;45115;52.002;4.686;2023-04-21T04:58:23;101516.13;;;7.77;99.70
59337;BME280;45115;52.002;4.686;2023-04-21T05:00:50;101528.75;;;7.78;99.29
59337;BME280;45115;52.002;4.686;2023-04-21T05:03:17;101528.56;;;7.81;99.83
59337;BME280;45115;52.002;4.686;2023-04-21T05:05:45;101528.66;;;7.80;99.77
59337;BME280;45115;52.002;4.686;2023-04-21T05:08:12;101523.75;;;7.85;99.75
59337;BME280;45115;52.002;4.686;2023-04-21T05:10:38;101529.84;;;7.88;99.81
59337;BME280;45115;52.002;4.686;2023-04-21T05:13:05;101525.06;;;7.92;99.54
59337;BME280;45115;52.002;4.686;2023-04-21T05:15:32;101514.13;;;7.92;99.55
59337;BME280;45115;52.002;4.686;2023-04-21T05:17:58;101520.13;;;7.97;98.89
59337;BME280;45115;52.002;4.686;2023-04-21T05:20:25;101510.94;;;7.98;98.77
59337;BME280;45115;52.002;4.686;2023-04-21T05:22:53;101513.88;;;8.08;98.95
59337;BME280;45115;52.002;4.686;2023-04-21T05:25:20;101517.38;;;8.10;98.71
59337;BME280;45115;52.002;4.686;2023-04-21T05:27:47;101522.47;;;8.14;98.78
59337;BME280;45115;52.002;4.686;2023-04-21T05:30:14;101525.75;;;8.19;98.61
59337;BME280;45115;52.002;4.686;2023-04-21T05:32:40;101530.13;;;8.22;98.68
59337;BME280;45115;52.002;4.686;2023-04-21T05:35:07;101535.25;;;8.26;99.01
59337;BME280;45115;52.002;4.686;2023-04-21T05:37:34;101542.00;;;8.33;98.85
59337;BME280;45115;52.002;4.686;2023-04-21T05:40:02;101536.31;;;8.36;98.13
59337;BME280;45115;52.002;4.686;2023-04-21T05:42:29;101530.16;;;8.45;98.16
59337;BME280;45115;52.002;4.686;2023-04-21T05:44:55;101537.50;;;8.45;97.80
59337;BME280;45115;52.002;4.686;2023-04-21T05:47:22;101543.81;;;8.45;98.01
59337;BME280;45115;52.002;4.686;2023-04-21T05:49:50;101543.00;;;8.56;97.91
59337;BME280;45115;52.002;4.686;2023-04-21T05:52:18;101541.69;;;8.61;97.69
59337;BME280;45115;52.002;4.686;2023-04-21T05:54:45;101544.53;;;8.60;97.50
59337;BME280;45115;52.002;4.686;2023-04-21T05:57:13;101544.41;;;8.61;97.19
59337;BME280;45115;52.002;4.686;2023-04-21T05:59:40;101551.16;;;8.68;97.33
59337;BME280;45115;52.002;4.686;2023-04-21T06:02:08;101547.53;;;8.68;96.82
59337;BME280;45115;52.002;4.686;2023-04-21T06:04:34;101547.78;;;8.65;96.65
59337;BME280;45115;52.002;4.686;2023-04-21T06:07:04;101555.97;;;8.65;96.91
59337;BME280;45115;52.002;4.686;2023-04-21T06:09:31;101555.09;;;8.64;96.87
59337;BME280;45115;52.002;4.686;2023-04-21T06:11:57;101547.38;;;8.58;97.11
59337;BME280;45115;52.002;4.686;2023-04-21T06:14:26;101550.19;;;8.69;96.97
59337;BME280;45115;52.002;4.686;2023-04-21T06:16:52;101545.94;;;8.65;97.05
59337;BME280;45115;52.002;4.686;2023-04-21T06:19:19;101556.75;;;8.67;97.34
59337;BME280;45115;52.002;4.686;2023-04-21T06:21:45;101556.75;;;8.67;97.32
59337;BME280;45115;52.002;4.686;2023-04-21T06:24:12;101556.16;;;8.74;97.14
59337;BME280;45115;52.002;4.686;2023-04-21T06:26:39;101556.31;;;8.84;96.59
59337;BME280;45115;52.002;4.686;2023-04-21T06:29:05;101555.06;;;9.00;96.16
59337;BME280;45115;52.002;4.686;2023-04-21T06:31:33;101551.19;;;9.03;95.94
59337;BME280;45115;52.002;4.686;2023-04-21T06:34:00;101557.09;;;9.21;95.51
59337;BME280;45115;52.002;4.686;2023-04-21T06:36:26;101549.19;;;9.29;95.27
59337;BME280;45115;52.002;4.686;2023-04-21T06:38:53;101549.41;;;9.26;95.09
59337;BME280;45115;52.002;4.686;2023-04-21T06:41:19;101548.44;;;9.27;95.03
59337;BME280;45115;52.002;4.686;2023-04-21T06:43:46;101555.19;;;9.10;95.27
59337;BME280;45115;52.002;4.686;2023-04-21T06:46:16;101545.84;;;9.25;94.96
59337;BME280;45115;52.002;4.686;2023-04-21T06:48:44;101548.44;;;9.27;95.67
59337;BME280;45115;52.002;4.686;2023-04-21T06:51:11;101546.72;;;9.37;94.52
59337;BME280;45115;52.002;4.686;2023-04-21T06:53:37;101552.94;;;9.39;94.58
59337;BME280;45115;52.002;4.686;2023-04-21T06:56:04;101547.19;;;9.31;94.69
59337;BME280;45115;52.002;4.686;2023-04-21T06:58:31;101542.97;;;9.27;94.42
59337;BME280;45115;52.002;4.686;2023-04-21T07:00:58;101547.31;;;9.29;94.18
59337;BME280;45115;52.002;4.686;2023-04-21T07:03:24;101544.56;;;9.29;94.06
59337;BME280;45115;52.002;4.686;2023-04-21T07:05:52;101537.38;;;9.28;94.54
59337;BME280;45115;52.002;4.686;2023-04-21T07:08:19;101536.00;;;9.23;94.44
59337;BME280;45115;52.002;4.686;2023-04-21T07:10:46;101539.41;;;9.37;94.19
59337;BME280;45115;52.002;4.686;2023-04-21T07:13:12;101540.28;;;9.49;94.48
59337;BME280;45115;52.002;4.686;2023-04-21T07:15:40;101541.78;;;9.53;93.08
59337;BME280;45115;52.002;4.686;2023-04-21T07:18:07;101540.56;;;9.57;92.37
59337;BME280;45115;52.002;4.686;2023-04-21T07:20:33;101547.00;;;9.56;91.41
59337;BME280;45115;52.002;4.686;2023-04-21T07:23:01;101537.69;;;9.47;91.49
59337;BME280;45115;52.002;4.686;2023-04-21T07:25:28;101529.84;;;9.43;92.22
59337;BME280;45115;52.002;4.686;2023-04-21T07:27:55;101543.66;;;9.52;92.41
59337;BME280;45115;52.002;4.686;2023-04-21T07:30:21;101543.19;;;9.58;92.10
59337;BME280;45115;52.002;4.686;2023-04-21T07:32:48;101547.03;;;9.67;91.53
59337;BME280;45115;52.002;4.686;2023-04-21T07:35:14;101542.31;;;9.69;92.64
59337;BME280;45115;52.002;4.686;2023-04-21T07:37:41;101543.31;;;9.79;90.84
59337;BME280;45115;52.002;4.686;2023-04-21T07:40:17;101527.91;;;9.89;90.55
59337;BME280;45115;52.002;4.686;2023-04-21T07:42:47;101539.13;;;10.19;88.58
59337;BME280;45115;52.002;4.686;2023-04-21T07:45:14;101518.69;;;10.34;88.08
59337;BME280;45115;52.002;4.686;2023-04-21T07:47:41;101541.34;;;10.47;87.29
59337;BME280;45115;52.002;4.686;2023-04-21T07:50:08;101543.53;;;10.53;87.38
59337;BME280;45115;52.002;4.686;2023-04-21T07:52:35;101546.81;;;10.58;86.84
59337;BME280;45115;52.002;4.686;2023-04-21T07:55:01;101545.28;;;10.65;87.40
59337;BME280;45115;52.002;4.686;2023-04-21T07:57:29;101545.44;;;10.53;86.75
59337;BME280;45115;52.002;4.686;2023-04-21T07:59:59;101545.22;;;10.76;86.37
59337;BME280;45115;52.002;4.686;2023-04-21T08:02:26;101534.91;;;11.32;86.14
59337;BME280;45115;52.002;4.686;2023-04-21T08:04:52;101530.09;;;11.86;81.63
59337;BME280;45115;52.002;4.686;2023-04-21T08:07:19;101541.84;;;11.68;82.70
59337;BME280;45115;52.002;4.686;2023-04-21T08:09:45;101524.72;;;11.85;81.73
59337;BME280;45115;52.002;4.686;2023-04-21T08:12:12;101529.00;;;12.38;79.51
59337;BME280;45115;52.002;4.686;2023-04-21T08:14:40;101538.00;;;13.18;77.96
59337;BME280;45115;52.002;4.686;2023-04-21T08:17:08;101525.44;;;13.81;73.36
59337;BME280;45115;52.002;4.686;2023-04-21T08:19:34;101533.31;;;12.99;74.22
59337;BME280;45115;52.002;4.686;2023-04-21T08:22:01;101534.38;;;12.40;77.95
59337;BME280;45115;52.002;4.686;2023-04-21T08:24:27;101537.50;;;12.25;77.82
59337;BME280;45115;52.002;4.686;2023-04-21T08:26:54;101534.47;;;11.98;78.18
59337;BME280;45115;52.002;4.686;2023-04-21T08:29:22;101537.34;;;11.97;78.88
59337;BME280;45115;52.002;4.686;2023-04-21T08:31:49;101533.50;;;13.07;75.23
59337;BME280;45115;52.002;4.686;2023-04-21T08:34:16;101520.16;;;13.41;72.02
59337;BME280;45115;52.002;4.686;2023-04-21T08:36:44;101517.78;;;13.75;73.85
59337;BME280;45115;52.002;4.686;2023-04-21T08:39:11;101527.28;;;13.99;68.19
59337;BME280;45115;52.002;4.686;2023-04-21T08:41:38;101520.97;;;13.80;69.54
59337;BME280;45115;52.002;4.686;2023-04-21T08:44:06;101524.03;;;13.67;72.24
59337;BME280;45115;52.002;4.686;2023-04-21T08:46:34;101529.97;;;13.72;71.46
59337;BME280;45115;52.002;4.686;2023-04-21T08:49:02;101517.09;;;14.00;69.93
59337;BME280;45115;52.002;4.686;2023-04-21T08:51:29;101518.78;;;14.20;68.13
59337;BME280;45115;52.002;4.686;2023-04-21T08:53:56;101510.44;;;14.02;68.00
59337;BME280;45115;52.002;4.686;2023-04-21T08:56:23;101513.47;;;13.63;68.34
59337;BME280;45115;52.002;4.686;2023-04-21T08:58:50;101511.75;;;13.52;70.14
59337;BME280;45115;52.002;4.686;2023-04-21T09:01:17;101507.09;;;13.62;68.07
59337;BME280;45115;52.002;4.686;2023-04-21T09:03:44;101522.78;;;13.52;68.88
59337;BME280;45115;52.002;4.686;2023-04-21T09:06:12;101508.84;;;13.54;69.65
59337;BME280;45115;52.002;4.686;2023-04-21T09:08:41;101503.59;;;13.70;68.10
59337;BME280;45115;52.002;4.686;2023-04-21T09:11:12;101513.63;;;14.07;68.42
59337;BME280;45115;52.002;4.686;2023-04-21T09:13:41;101514.97;;;13.94;68.05
59337;BME280;45115;52.002;4.686;2023-04-21T09:16:14;101520.91;;;13.89;68.82
59337;BME280;45115;52.002;4.686;2023-04-21T09:18:43;101512.28;;;14.48;68.56
59337;BME280;45115;52.002;4.686;2023-04-21T09:21:12;101515.16;;;14.29;66.46
59337;BME280;45115;52.002;4.686;2023-04-21T09:23:41;101517.75;;;14.30;67.24
59337;BME280;45115;52.002;4.686;2023-04-21T09:26:08;101506.16;;;14.27;67.16
59337;BME280;45115;52.002;4.686;2023-04-21T09:28:35;101507.50;;;14.13;66.79
59337;BME280;45115;52.002;4.686;2023-04-21T09:31:02;101514.25;;;13.92;67.20
59337;BME280;45115;52.002;4.686;2023-04-21T09:33:32;101513.59;;;13.71;68.42
59337;BME280;45115;52.002;4.686;2023-04-21T09:36:00;101513.59;;;13.71;68.18
59337;BME280;45115;52.002;4.686;2023-04-21T09:38:28;101503.41;;;14.17;67.22
59337;BME280;45115;52.002;4.686;2023-04-21T09:40:58;101503.97;;;13.94;67.34
59337;BME280;45115;52.002;4.686;2023-04-21T09:43:25;101500.50;;;13.82;68.40
59337;BME280;45115;52.002;4.686;2023-04-21T09:45:52;101504.44;;;13.80;67.83
59337;BME280;45115;52.002;4.686;2023-04-21T09:48:21;101495.97;;;13.91;68.26
59337;BME280;45115;52.002;4.686;2023-04-21T09:50:52;101496.97;;;13.99;67.81
59337;BME280;45115;52.002;4.686;2023-04-21T09:53:20;101495.44;;;14.14;68.49
59337;BME280;45115;52.002;4.686;2023-04-21T09:55:53;101497.69;;;14.38;67.12
59337;BME280;45115;52.002;4.686;2023-04-21T09:58:22;101494.72;;;14.49;66.30
59337;BME280;45115;52.002;4.686;2023-04-21T10:00:51;101491.41;;;14.45;65.90
59337;BME280;45115;52.002;4.686;2023-04-21T10:03:19;101486.16;;;15.05;64.57
59337;BME280;45115;52.002;4.686;2023-04-21T10:05:49;101485.06;;;15.15;62.61
59337;BME280;45115;52.002;4.686;2023-04-21T10:08:16;101488.84;;;14.79;63.48
59337;BME280;45115;52.002;4.686;2023-04-21T10:10:44;101491.00;;;14.85;62.58
59337;BME280;45115;52.002;4.686;2023-04-21T10:13:13;101488.72;;;14.98;63.12
59337;BME280;45115;52.002;4.686;2023-04-21T10:15:43;101494.38;;;14.97;61.88
59337;BME280;45115;52.002;4.686;2023-04-21T10:18:14;101472.75;;;14.92;61.40
59337;BME280;45115;52.002;4.686;2023-04-21T10:20:54;101474.50;;;15.11;61.44
59337;BME280;45115;52.002;4.686;2023-04-21T10:23:29;101473.81;;;15.09;60.69
59337;BME280;45115;52.002;4.686;2023-04-21T10:26:04;101472.69;;;15.19;61.69
59337;BME280;45115;52.002;4.686;2023-04-21T10:28:41;101469.88;;;15.11;61.22
59337;BME280;45115;52.002;4.686;2023-04-21T10:31:22;101465.13;;;15.04;62.12
59337;BME280;45115;52.002;4.686;2023-04-21T10:34:15;101470.81;;;15.20;61.87
59337;BME280;45115;52.002;4.686;2023-04-21T10:36:48;101462.16;;;14.97;60.59
59337;BME280;45115;52.002;4.686;2023-04-21T10:39:26;101456.28;;;15.18;61.37
59337;BME280;45115;52.002;4.686;2023-04-21T10:41:54;101451.38;;;15.29;60.57
59337;BME280;45115;52.002;4.686;2023-04-21T10:44:23;101449.72;;;15.36;58.79
59337;BME280;45115;52.002;4.686;2023-04-21T10:46:51;101438.66;;;15.36;60.05
59337;BME280;45115;52.002;4.686;2023-04-21T10:49:21;101432.53;;;15.42;60.40
59337;BME280;45115;52.002;4.686;2023-04-21T10:52:07;101433.16;;;15.88;59.75
59337;BME280;45115;52.002;4.686;2023-04-21T10:54:41;101426.56;;;16.14;58.51
59337;BME280;45115;52.002;4.686;2023-04-21T10:57:10;101427.00;;;16.02;57.64
59337;BME280;45115;52.002;4.686;2023-04-21T10:59:38;101419.72;;;15.93;59.27
59337;BME280;45115;52.002;4.686;2023-04-21T11:02:06;101410.69;;;16.74;57.41
59337;BME280;45115;52.002;4.686;2023-04-21T11:04:33;101422.44;;;17.16;56.57
59337;BME280;45115;52.002;4.686;2023-04-21T11:07:06;101424.69;;;17.21;56.47
59337;BME280;45115;52.002;4.686;2023-04-21T11:09:33;101418.31;;;17.28;56.18
59337;BME280;45115;52.002;4.686;2023-04-21T11:12:01;101415.34;;;16.90;55.15
59337;BME280;45115;52.002;4.686;2023-04-21T11:14:29;101411.09;;;16.45;56.19
59337;BME280;45115;52.002;4.686;2023-04-21T11:16:57;101417.91;;;16.17;57.78
59337;BME280;45115;52.002;4.686;2023-04-21T11:19:24;101402.19;;;16.59;57.17
59337;BME280;45115;52.002;4.686;2023-04-21T11:21:52;101398.38;;;17.17;55.91
59337;BME280;45115;52.002;4.686;2023-04-21T11:24:20;101395.44;;;17.34;54.48
59337;BME280;45115;52.002;4.686;2023-04-21T11:26:47;101389.06;;;17.10;56.20
59337;BME280;45115;52.002;4.686;2023-04-21T11:29:14;101390.78;;;17.19;55.93
59337;BME280;45115;52.002;4.686;2023-04-21T11:31:42;101385.59;;;17.16;55.44
59337;BME280;45115;52.002;4.686;2023-04-21T11:34:11;101392.50;;;17.52;54.83
59337;BME280;45115;52.002;4.686;2023-04-21T11:36:39;101364.25;;;18.03;52.07
59337;BME280;45115;52.002;4.686;2023-04-21T11:39:08;101375.88;;;17.44;54.00
59337;BME280;45115;52.002;4.686;2023-04-21T11:41:37;101372.84;;;17.77;54.11
59337;BME280;45115;52.002;4.686;2023-04-21T11:44:04;101372.50;;;17.72;52.40
59337;BME280;45115;52.002;4.686;2023-04-21T11:46:31;101370.16;;;17.45;54.78
59337;BME280;45115;52.002;4.686;2023-04-21T11:49:00;101364.63;;;17.29;54.23
59337;BME280;45115;52.002;4.686;2023-04-21T11:51:33;101357.72;;;17.96;53.07
59337;BME280;45115;52.002;4.686;2023-04-21T11:53:59;101358.03;;;17.54;52.89
59337;BME280;45115;52.002;4.686;2023-04-21T11:56:26;101354.38;;;17.62;53.38
59337;BME280;45115;52.002;4.686;2023-04-21T11:58:52;101357.69;;;17.49;54.49
59337;BME280;45115;52.002;4.686;2023-04-21T12:01:20;101357.53;;;17.35;53.15
59337;BME280;45115;52.002;4.686;2023-04-21T12:03:51;101360.69;;;17.00;54.67
59337;BME280;45115;52.002;4.686;2023-04-21T12:06:22;101356.69;;;17.26;55.35
59337;BME280;45115;52.002;4.686;2023-04-21T12:08:55;101364.97;;;17.50;53.38
59337;BME280;45115;52.002;4.686;2023-04-21T12:11:23;101347.88;;;17.07;53.60
59337;BME280;45115;52.002;4.686;2023-04-21T12:13:50;101350.13;;;16.55;55.89
59337;BME280;45115;52.002;4.686;2023-04-21T12:16:17;101351.16;;;17.18;54.65
59337;BME280;45115;52.002;4.686;2023-04-21T12:18:43;101330.19;;;17.87;53.28
59337;BME280;45115;52.002;4.686;2023-04-21T12:21:13;101336.91;;;18.00;51.72
59337;BME280;45115;52.002;4.686;2023-04-21T12:23:41;101345.38;;;17.60;51.75
59337;BME280;45115;52.002;4.686;2023-04-21T12:26:10;101337.59;;;17.39;52.77
59337;BME280;45115;52.002;4.686;2023-04-21T12:28:38;101339.69;;;17.53;52.81
59337;BME280;45115;52.002;4.686;2023-04-21T12:31:05;101339.75;;;17.13;51.62
59337;BME280;45115;52.002;4.686;2023-04-21T12:33:31;101330.00;;;17.41;52.79
59337;BME280;45115;52.002;4.686;2023-04-21T12:35:58;101323.63;;;17.88;51.41
59337;BME280;45115;52.002;4.686;2023-04-21T12:38:25;101330.19;;;17.87;51.98
59337;BME280;45115;52.002;4.686;2023-04-21T12:40:51;101327.91;;;17.51;50.88
59337;BME280;45115;52.002;4.686;2023-04-21T12:43:19;101328.22;;;17.64;51.19
59337;BME280;45115;52.002;4.686;2023-04-21T12:45:46;101322.72;;;17.48;51.90
59337;BME280;45115;52.002;4.686;2023-04-21T12:48:13;101321.44;;;17.67;51.58
59337;BME280;45115;52.002;4.686;2023-04-21T12:50:39;101309.94;;;17.86;50.54
59337;BME280;45115;52.002;4.686;2023-04-21T12:53:08;101307.34;;;18.15;51.04
59337;BME280;45115;52.002;4.686;2023-04-21T12:55:34;101310.84;;;18.09;50.43
59337;BME280;45115;52.002;4.686;2023-04-21T12:58:01;101300.72;;;17.55;50.89